createdAt,value
2019-04-03T00:00:04.366Z,55.1
2019-04-03T00:05:02.754Z,55.1
2019-04-03T00:10:02.075Z,55.7
2019-04-03T00:15:01.813Z,55.1
2019-04-03T00:20:02.040Z,54.6
2019-04-03T00:25:02.494Z,55.1
2019-04-03T00:30:01.756Z,55.1
2019-04-03T00:35:01.612Z,55.1
2019-04-03T00:40:02.263Z,55.1
2019-04-03T00:45:02.112Z,55.1
2019-04-03T00:50:01.613Z,55.1
2019-04-03T00:55:01.575Z,55.1
2019-04-03T01:00:01.881Z,55.1
2019-04-03T01:05:01.515Z,55.1
2019-04-03T01:10:01.752Z,55.1
2019-04-03T01:15:02.312Z,55.1
2019-04-03T01:20:02.609Z,55.1
2019-04-03T01:25:01.566Z,55.1
2019-04-03T01:30:01.776Z,55.1
2019-04-03T01:35:01.652Z,55.1
2019-04-03T01:40:02.074Z,55.1
2019-04-03T01:45:01.868Z,54.6
2019-04-03T01:50:01.828Z,55.1
2019-04-03T01:55:04.024Z,55.1
2019-04-03T02:00:02.085Z,55.1
2019-04-03T02:05:02.224Z,55.1
2019-04-03T02:10:02.531Z,55.1
2019-04-03T02:15:02.012Z,55.1
2019-04-03T02:20:01.688Z,55.1
2019-04-03T02:25:02.164Z,55.1
2019-04-03T02:30:02.403Z,55.1
2019-04-03T02:35:02.050Z,54.6
2019-04-03T02:40:02.479Z,55.1
2019-04-03T02:45:02.253Z,55.1
2019-04-03T02:50:02.570Z,55.1
2019-04-03T02:55:01.788Z,54.1
2019-04-03T03:00:01.977Z,54.6
2019-04-03T03:05:01.940Z,54.6
2019-04-03T03:10:01.652Z,54.1
2019-04-03T03:15:01.548Z,54.1
2019-04-03T03:20:04.962Z,54.1
2019-04-03T03:25:02.526Z,54.1
2019-04-03T03:30:02.489Z,54.6
2019-04-03T03:35:11.488Z,54.1
2019-04-03T03:40:01.967Z,54.1
2019-04-03T03:45:02.399Z,54.1
2019-04-03T03:50:02.317Z,54.1
2019-04-03T03:55:02.398Z,54.1
2019-04-03T04:00:02.267Z,54.1
2019-04-03T04:05:01.724Z,54.6
2019-04-03T04:10:01.572Z,54.6
2019-04-03T04:15:02.214Z,54.1
2019-04-03T04:20:04.702Z,54.1
2019-04-03T04:25:01.910Z,54.1
2019-04-03T04:30:01.920Z,54.1
2019-04-03T04:35:02.351Z,54.1
2019-04-03T04:40:02.227Z,54.6
2019-04-03T04:45:01.645Z,54.1
2019-04-03T04:50:02.198Z,54.1
2019-04-03T04:55:02.856Z,54.1
2019-04-03T05:00:02.190Z,54.1
2019-04-03T05:05:01.822Z,54.1
2019-04-03T05:10:02.330Z,53.5
2019-04-03T05:15:02.310Z,54.1
2019-04-03T05:20:02.463Z,54.1
2019-04-03T05:25:02.433Z,54.1
2019-04-03T05:30:02.185Z,54.1
2019-04-03T05:35:02.137Z,54.1
2019-04-03T05:40:01.832Z,54.1
2019-04-03T05:45:04.521Z,54.1
2019-04-03T05:50:02.404Z,54.1
2019-04-03T05:55:01.712Z,54.1
2019-04-03T06:00:02.870Z,54.1
2019-04-03T06:05:02.306Z,54.1
2019-04-03T06:10:01.790Z,54.6
2019-04-03T06:15:02.404Z,54.1
2019-04-03T06:20:02.203Z,54.1
2019-04-03T06:25:02.585Z,54.1
2019-04-03T06:30:02.085Z,55.1
2019-04-03T06:35:01.911Z,55.1
2019-04-03T06:40:03.794Z,55.1
2019-04-03T06:45:01.742Z,55.1
2019-04-03T06:50:01.641Z,55.1
2019-04-03T06:55:03.249Z,55.1
2019-04-03T07:00:01.701Z,55.1
2019-04-03T07:05:02.559Z,55.7
2019-04-03T07:10:02.262Z,55.7
2019-04-03T07:15:02.220Z,55.7
2019-04-03T07:20:12.292Z,55.7
2019-04-03T07:25:03.454Z,55.1
2019-04-03T07:30:02.483Z,56.2
2019-04-03T07:35:04.405Z,56.2
2019-04-03T07:40:01.887Z,56.2
2019-04-03T07:45:03.095Z,56.2
2019-04-03T07:50:02.885Z,56.2
2019-04-03T07:55:02.215Z,56.2
2019-04-03T08:00:05.608Z,56.2
2019-04-03T08:05:01.670Z,56.2
2019-04-03T08:10:02.274Z,56.8
2019-04-03T08:15:01.915Z,56.8
2019-04-03T08:20:01.863Z,57.3
2019-04-03T08:25:02.444Z,56.2
2019-04-03T08:30:01.912Z,57.3
2019-04-03T08:35:03.348Z,57.3
2019-04-03T08:40:02.128Z,57.3
2019-04-03T08:45:02.044Z,57.8
2019-04-03T08:50:02.523Z,57.3
2019-04-03T08:55:02.259Z,57.3
2019-04-03T09:00:02.261Z,57.8
2019-04-03T09:05:02.329Z,57.8
2019-04-03T09:10:02.138Z,57.3
2019-04-03T09:15:02.122Z,58.4
2019-04-03T09:20:01.889Z,58.4
2019-04-03T09:25:01.523Z,58.4
2019-04-03T09:30:02.517Z,58.4
2019-04-03T09:35:02.401Z,58.4
2019-04-03T09:40:02.102Z,58.9
2019-04-03T09:45:02.099Z,58.4
2019-04-03T09:50:01.764Z,58.9
2019-04-03T09:55:02.280Z,59.5
2019-04-03T10:00:02.322Z,59.5
2019-04-03T10:05:02.198Z,60
2019-04-03T10:10:02.399Z,59.5
2019-04-03T10:15:01.702Z,59.5
2019-04-03T10:20:02.260Z,59.5
2019-04-03T10:25:04.780Z,60
2019-04-03T10:30:01.964Z,60.5
2019-04-03T10:35:02.402Z,60.5
2019-04-03T10:40:01.759Z,60
2019-04-03T10:45:02.178Z,60
2019-04-03T10:50:02.182Z,60.5
2019-04-03T10:55:01.772Z,60.5
2019-04-03T11:00:02.339Z,60.5
2019-04-03T11:05:02.212Z,61.1
2019-04-03T11:10:02.297Z,61.1
2019-04-03T11:15:02.548Z,61.6
2019-04-03T11:20:02.474Z,61.6
2019-04-03T11:25:01.915Z,61.6
2019-04-03T11:30:02.370Z,61.6
2019-04-03T11:35:01.945Z,61.6
2019-04-03T11:40:04.844Z,62.1
2019-04-03T11:45:04.223Z,62.1
2019-04-03T11:50:02.178Z,62.1
2019-04-03T11:55:02.492Z,61.6
2019-04-03T12:00:02.202Z,61.6
2019-04-03T12:05:02.018Z,62.1
2019-04-03T12:10:03.428Z,62.1
2019-04-03T12:15:02.489Z,62.1
2019-04-03T12:20:02.364Z,62.7
2019-04-03T12:25:02.310Z,62.1
2019-04-03T12:30:01.880Z,62.7
2019-04-03T12:35:01.720Z,62.7
2019-04-03T12:40:02.504Z,62.7
2019-04-03T12:45:01.934Z,63.2
2019-04-03T12:50:02.368Z,62.7
2019-04-03T12:55:01.921Z,63.2
2019-04-03T13:00:01.630Z,63.8
2019-04-03T13:05:05.006Z,63.8
2019-04-03T13:10:01.905Z,63.8
2019-04-03T13:15:04.527Z,63.2
2019-04-03T13:20:05.510Z,63.8
2019-04-03T13:25:01.945Z,62.1
2019-04-03T13:30:02.458Z,62.7
2019-04-03T13:35:04.602Z,62.7
2019-04-03T13:40:05.164Z,63.8
2019-04-03T13:45:02.929Z,63.2
2019-04-03T13:50:03.553Z,63.8
2019-04-03T13:55:02.256Z,64.8
2019-04-03T14:00:11.370Z,64.8
2019-04-03T14:05:02.364Z,64.3
2019-04-03T14:10:02.251Z,65.4
2019-04-03T14:15:04.300Z,64.8
2019-04-03T14:20:02.090Z,65.4
2019-04-03T14:25:02.283Z,66.4
2019-04-03T14:30:02.053Z,67.5
2019-04-03T14:35:09.438Z,67
2019-04-03T14:40:02.506Z,65.9
2019-04-03T14:45:02.395Z,67
2019-04-03T14:50:02.671Z,67
2019-04-03T14:55:16.045Z,65.9
2019-04-03T15:00:03.042Z,66.4
2019-04-03T15:05:02.354Z,67
2019-04-03T15:10:02.673Z,68.1
2019-04-03T15:15:01.826Z,69.1
2019-04-03T15:20:02.523Z,70.2
2019-04-03T15:25:03.009Z,70.8
2019-04-03T15:30:02.681Z,70.8
2019-04-03T15:35:02.172Z,70.2
2019-04-03T15:40:02.021Z,70.2
2019-04-03T15:45:02.311Z,69.1
2019-04-03T15:50:03.166Z,69.1
2019-04-03T15:55:03.582Z,69.1
2019-04-03T16:00:03.422Z,69.1
2019-04-03T16:05:02.098Z,68.6
2019-04-03T16:10:01.739Z,66.4
2019-04-03T16:15:01.640Z,68.1
2019-04-03T16:20:01.854Z,68.1
2019-04-03T16:25:01.632Z,68.1
2019-04-03T16:30:01.836Z,67.5
2019-04-03T16:35:02.755Z,67
2019-04-03T16:40:04.107Z,66.4
2019-04-03T16:45:04.074Z,65.9
2019-04-03T16:50:01.638Z,65.9
2019-04-03T16:55:02.255Z,65.9
2019-04-03T17:00:02.604Z,65.9
2019-04-03T17:05:02.241Z,65.4
2019-04-03T17:10:01.729Z,64.8
2019-04-03T17:15:02.180Z,65.4
2019-04-03T17:20:02.389Z,64.8
2019-04-03T17:25:01.614Z,64.8
2019-04-03T17:30:02.061Z,64.3
2019-04-03T17:35:02.109Z,64.8
2019-04-03T17:40:02.207Z,64.3
2019-04-03T17:45:02.231Z,63.8
2019-04-03T17:50:01.758Z,64.3
2019-04-03T17:55:01.791Z,63.8
2019-04-03T18:00:02.254Z,63.8
2019-04-03T18:05:02.391Z,63.8
2019-04-03T18:10:02.665Z,63.8
2019-04-03T18:15:02.328Z,63.2
2019-04-03T18:20:02.154Z,62.7
2019-04-03T18:25:02.089Z,62.7
2019-04-03T18:30:01.923Z,62.7
2019-04-03T18:35:01.972Z,62.7
2019-04-03T18:40:02.525Z,62.7
2019-04-03T18:45:01.685Z,62.7
2019-04-03T18:50:03.505Z,62.1
2019-04-03T18:55:02.058Z,62.7
2019-04-03T19:00:02.434Z,62.7
2019-04-03T19:05:02.719Z,62.1
2019-04-03T19:10:07.173Z,62.1
2019-04-03T19:15:03.167Z,61.6
2019-04-03T19:20:10.040Z,61.6
2019-04-03T19:25:01.879Z,61.6
2019-04-03T19:30:01.876Z,61.6
2019-04-03T19:35:01.834Z,61.6
2019-04-03T19:40:02.376Z,61.6
2019-04-03T19:45:02.369Z,61.6
2019-04-03T19:50:02.369Z,61.6
2019-04-03T19:55:02.330Z,61.1
2019-04-03T20:00:03.043Z,60.5
2019-04-03T20:05:02.371Z,61.1
2019-04-03T20:10:03.098Z,60.5
2019-04-03T20:15:02.327Z,61.1
2019-04-03T20:20:01.534Z,60.5
2019-04-03T20:25:02.282Z,56.8
2019-04-03T20:30:02.181Z,57.8
2019-04-03T20:35:02.185Z,59.5
2019-04-03T20:40:02.548Z,47.1
2019-04-03T20:45:01.514Z,59.5
2019-04-03T20:50:01.565Z,60
2019-04-03T20:55:01.540Z,59.5
2019-04-03T21:00:03.328Z,57.3
2019-04-03T21:05:01.912Z,58.4
2019-04-03T21:10:01.994Z,59.5
2019-04-03T21:15:08.020Z,59.5
2019-04-03T21:20:01.930Z,59.5
2019-04-03T21:25:04.854Z,60
2019-04-03T21:30:01.775Z,59.5
2019-04-03T21:35:03.858Z,59.5
2019-04-03T21:40:04.806Z,59.5
2019-04-03T21:45:02.673Z,59.5
2019-04-03T21:50:03.583Z,59.5
2019-04-03T21:55:04.665Z,59.5
2019-04-03T22:00:02.141Z,60
2019-04-03T22:05:02.033Z,59.5
2019-04-03T22:10:02.626Z,59.5
2019-04-03T22:15:02.135Z,59.5
2019-04-03T22:20:01.933Z,59.5
2019-04-03T22:25:01.964Z,58.9
2019-04-03T22:30:02.226Z,58.9
2019-04-03T22:35:02.258Z,58.9
2019-04-03T22:40:02.342Z,58.4
2019-04-03T22:45:02.176Z,59.5
2019-04-03T22:50:04.734Z,59.5
2019-04-03T22:55:01.893Z,58.9
2019-04-03T23:00:02.249Z,59.5
2019-04-03T23:05:02.255Z,58.4
2019-04-03T23:10:02.272Z,59.5
2019-04-03T23:15:02.270Z,58.4
2019-04-03T23:20:02.322Z,58.4
2019-04-03T23:25:01.637Z,58.4
2019-04-03T23:30:01.793Z,58.4
2019-04-03T23:35:02.437Z,59.5
2019-04-03T23:40:01.824Z,59.5
2019-04-03T23:45:01.957Z,58.4
2019-04-03T23:50:02.398Z,58.4
2019-04-03T23:55:04.406Z,58.4
